Time;durP1;ratioP1;P1;durP2;ratioP2;P2;SDS_P1;SDS_P2;PMS_P1;PMS_P2;Temp;Humidity;BMP_temperature;BMP_pressure;BME280_temperature;BME280_humidity;BME280_pressure;Samples;Min_cycle;Max_cycle;Signal;HPM_P1;HPM_P2
2023/12/12 00:02:10;;;;;;;35.42;9.80;;;9.30;97.70;;;;;;4970287;28;20030;-69
2023/12/12 00:04:37;;;;;;;38.03;10.65;;;9.30;97.60;;;;;;4987007;28;20034;-71
2023/12/12 00:07:03;;;;;;;40.17;9.77;;;9.30;97.60;;;;;;4987466;28;20027;-68
2023/12/12 00:09:28;;;;;;;42.92;9.75;;;9.30;97.60;;;;;;4984859;28;20038;-71
2023/12/12 00:11:55;;;;;;;40.65;9.70;;;9.30;97.60;;;;;;4986901;28;20437;-70
2023/12/12 00:14:20;;;;;;;42.47;10.77;;;9.30;97.60;;;;;;4966700;28;20093;-70
2023/12/12 00:16:46;;;;;;;33.00;9.00;;;9.40;97.60;;;;;;4982801;28;20439;-70
2023/12/12 00:19:12;;;;;;;42.28;10.18;;;9.40;97.50;;;;;;4982417;28;20034;-69
2023/12/12 00:21:38;;;;;;;43.20;11.35;;;9.40;97.50;;;;;;4992665;28;20057;-69
2023/12/12 00:24:04;;;;;;;54.65;10.65;;;9.40;97.50;;;;;;4994018;28;20445;-69
2023/12/12 00:26:29;;;;;;;40.40;9.85;;;9.40;97.40;;;;;;5005259;28;20049;-70
2023/12/12 00:28:55;;;;;;;36.33;9.23;;;9.40;97.50;;;;;;5004674;28;20038;-69
2023/12/12 00:31:21;;;;;;;39.75;9.10;;;9.40;97.50;;;;;;4990074;28;20046;-69
2023/12/12 00:33:46;;;;;;;40.20;8.95;;;9.30;97.40;;;;;;4987389;28;20030;-68
2023/12/12 00:36:12;;;;;;;36.78;10.23;;;9.40;97.50;;;;;;5006381;28;20026;-71
2023/12/12 00:38:38;;;;;;;36.97;9.25;;;9.40;97.50;;;;;;5003645;28;20406;-70
2023/12/12 00:41:04;;;;;;;35.13;9.85;;;9.40;97.40;;;;;;5001598;28;20467;-68
2023/12/12 00:43:31;;;;;;;36.67;10.00;;;9.40;97.40;;;;;;4986100;28;20374;-70
2023/12/12 00:45:57;;;;;;;36.50;8.80;;;9.40;97.20;;;;;;5000450;28;20061;-69
2023/12/12 00:48:22;;;;;;;34.97;9.48;;;9.40;97.30;;;;;;4998015;28;20508;-69
2023/12/12 00:50:48;;;;;;;34.47;9.18;;;9.40;97.20;;;;;;4997038;28;20050;-70
2023/12/12 00:53:14;;;;;;;34.38;8.60;;;9.40;97.10;;;;;;5000742;28;20046;-69
2023/12/12 00:55:40;;;;;;;38.88;9.40;;;9.40;97.10;;;;;;4995865;28;20045;-69
2023/12/12 00:58:05;;;;;;;32.75;8.98;;;9.40;97.10;;;;;;5005478;28;20460;-70
2023/12/12 01:00:31;;;;;;;37.22;9.52;;;9.30;97.10;;;;;;4992497;28;20046;-71
2023/12/12 01:02:57;;;;;;;26.88;8.52;;;9.30;97.10;;;;;;5003082;28;20034;-72
2023/12/12 01:05:23;;;;;;;33.85;8.65;;;9.30;97.00;;;;;;4995404;28;20041;-70
2023/12/12 01:07:48;;;;;;;36.15;9.02;;;9.30;97.00;;;;;;5001520;28;20458;-71
2023/12/12 01:10:14;;;;;;;36.30;10.82;;;9.30;97.00;;;;;;5004671;28;20054;-71
2023/12/12 01:12:40;;;;;;;34.20;9.07;;;9.30;97.00;;;;;;5001308;28;20030;-70
2023/12/12 01:15:06;;;;;;;29.02;8.50;;;9.30;96.90;;;;;;4994810;28;20030;-70
2023/12/12 01:17:32;;;;;;;35.10;9.15;;;9.30;96.90;;;;;;5004519;28;20493;-71
2023/12/12 01:19:58;;;;;;;39.85;9.32;;;9.30;96.90;;;;;;5004375;28;20503;-70
2023/12/12 01:22:24;;;;;;;29.77;8.90;;;9.20;96.90;;;;;;4999906;28;20045;-69
2023/12/12 01:24:50;;;;;;;31.40;7.68;;;9.20;96.90;;;;;;4999173;28;20050;-70
2023/12/12 01:27:15;;;;;;;34.65;8.35;;;9.20;96.80;;;;;;5002650;28;20367;-69
2023/12/12 01:29:41;;;;;;;32.45;8.25;;;9.20;96.70;;;;;;5001663;28;20389;-69
2023/12/12 01:32:07;;;;;;;37.22;9.90;;;9.10;96.60;;;;;;5006297;28;20033;-69
2023/12/12 01:34:32;;;;;;;34.88;8.52;;;9.10;96.70;;;;;;5000509;28;20113;-69
2023/12/12 01:36:58;;;;;;;37.65;8.50;;;9.10;96.70;;;;;;5000991;28;20030;-69
2023/12/12 01:39:24;;;;;;;30.48;9.05;;;9.10;96.70;;;;;;4990694;28;20375;-69
2023/12/12 01:41:50;;;;;;;33.08;8.43;;;9.00;96.70;;;;;;5001603;28;20050;-70
2023/12/12 01:44:16;;;;;;;30.23;8.30;;;8.90;96.80;;;;;;4997756;28;20030;-70
2023/12/12 01:46:46;;;;;;;38.53;8.27;;;8.90;96.80;;;;;;5000016;28;20062;-70
2023/12/12 01:49:13;;;;;;;35.97;7.72;;;8.90;96.90;;;;;;4997894;28;20505;-70
2023/12/12 01:51:39;;;;;;;32.10;8.57;;;8.90;97.00;;;;;;4997826;28;20088;-69
2023/12/12 01:54:06;;;;;;;26.70;7.60;;;8.90;97.00;;;;;;4984766;28;20996;-68
2023/12/12 01:56:34;;;;;;;26.77;7.32;;;8.90;97.10;;;;;;5002960;28;20046;-70
2023/12/12 01:59:00;;;;;;;29.70;8.30;;;8.90;97.10;;;;;;4989101;28;20018;-68
2023/12/12 02:01:27;;;;;;;30.10;8.50;;;9.00;97.10;;;;;;5000095;28;20575;-68
2023/12/12 02:03:54;;;;;;;29.30;7.80;;;8.90;97.10;;;;;;5002929;28;20355;-70
2023/12/12 02:06:22;;;;;;;36.72;7.95;;;8.90;97.10;;;;;;4975525;28;20039;-69
2023/12/12 02:08:51;;;;;;;29.55;8.80;;;9.00;97.10;;;;;;5001829;28;20029;-68
2023/12/12 02:11:18;;;;;;;29.70;8.18;;;9.00;97.00;;;;;;5002341;28;20040;-69
2023/12/12 02:13:44;;;;;;;33.33;8.95;;;8.90;96.90;;;;;;5000521;28;20026;-69
2023/12/12 02:16:12;;;;;;;38.90;9.07;;;8.90;96.90;;;;;;4993556;28;20034;-69
2023/12/12 02:18:37;;;;;;;33.63;9.88;;;8.90;96.90;;;;;;4996695;28;20040;-69
2023/12/12 02:21:03;;;;;;;29.45;8.35;;;8.90;96.90;;;;;;4999920;28;20033;-68
2023/12/12 02:23:30;;;;;;;31.80;9.07;;;9.00;96.80;;;;;;5001042;28;20450;-68
2023/12/12 02:25:56;;;;;;;29.48;8.60;;;9.00;96.80;;;;;;4996162;28;20069;-71
2023/12/12 02:28:22;;;;;;;35.13;8.73;;;9.00;96.80;;;;;;4996256;28;20038;-69
2023/12/12 02:30:48;;;;;;;28.58;8.48;;;9.00;96.80;;;;;;5002339;28;20521;-69
2023/12/12 02:33:14;;;;;;;29.40;8.90;;;8.90;96.80;;;;;;5006012;28;20064;-71
2023/12/12 02:35:40;;;;;;;33.03;8.60;;;9.00;96.80;;;;;;5002085;28;20498;-69
2023/12/12 02:38:05;;;;;;;45.30;9.57;;;8.90;96.70;;;;;;5003539;28;20030;-70
2023/12/12 02:40:31;;;;;;;24.23;6.63;;;8.90;96.70;;;;;;4989926;28;20042;-70
2023/12/12 02:42:57;;;;;;;31.48;8.05;;;8.90;96.80;;;;;;5001818;28;20022;-69
2023/12/12 02:45:23;;;;;;;30.90;8.20;;;8.90;96.80;;;;;;5001359;28;20065;-69
2023/12/12 02:47:48;;;;;;;25.85;7.20;;;8.90;96.80;;;;;;5003434;28;20038;-69
2023/12/12 02:50:14;;;;;;;31.75;7.15;;;8.90;96.90;;;;;;4979465;28;20120;-71
2023/12/12 02:52:40;;;;;;;28.25;7.80;;;8.80;96.90;;;;;;5001659;28;20034;-69
2023/12/12 02:55:05;;;;;;;33.08;7.97;;;8.80;97.00;;;;;;4997033;28;20539;-69
2023/12/12 02:57:31;;;;;;;24.95;7.95;;;8.80;97.10;;;;;;4999117;28;20022;-69
2023/12/12 02:59:57;;;;;;;28.80;7.45;;;8.80;97.10;;;;;;4998039;28;20066;-70
2023/12/12 03:02:22;;;;;;;31.40;8.05;;;8.80;97.20;;;;;;5001487;28;20080;-70
2023/12/12 03:04:48;;;;;;;30.63;7.82;;;8.90;97.20;;;;;;4996972;28;20073;-71
2023/12/12 03:07:13;;;;;;;26.02;8.48;;;8.80;97.10;;;;;;5000506;28;20033;-69
2023/12/12 03:09:39;;;;;;;29.83;8.32;;;8.80;97.20;;;;;;4997958;28;20065;-71
2023/12/12 03:12:05;;;;;;;29.88;8.40;;;8.80;97.20;;;;;;5000042;28;20038;-70
2023/12/12 03:14:31;;;;;;;26.08;8.07;;;8.80;97.30;;;;;;4993008;28;20022;-70
2023/12/12 03:16:57;;;;;;;26.33;8.70;;;8.80;97.30;;;;;;4987261;28;20018;-69
2023/12/12 03:19:23;;;;;;;28.50;9.43;;;8.80;97.40;;;;;;5000979;28;20620;-69
2023/12/12 03:21:49;;;;;;;33.70;8.95;;;8.80;97.50;;;;;;4993332;28;20073;-69
2023/12/12 03:24:16;;;;;;;34.38;10.25;;;8.80;97.60;;;;;;5000570;28;20030;-70
2023/12/12 03:26:45;;;;;;;30.40;8.88;;;8.90;97.60;;;;;;4997251;28;20410;-71
2023/12/12 03:29:11;;;;;;;32.78;8.57;;;8.90;97.70;;;;;;4993100;28;20030;-70
2023/12/12 03:31:36;;;;;;;40.03;9.57;;;8.90;97.60;;;;;;4995620;28;20041;-69
2023/12/12 03:34:02;;;;;;;29.88;8.88;;;8.90;97.60;;;;;;4999878;28;20026;-70
2023/12/12 03:36:28;;;;;;;36.75;9.25;;;9.00;97.60;;;;;;5000972;28;20064;-69
2023/12/12 03:38:53;;;;;;;28.10;8.63;;;9.00;97.60;;;;;;4983085;28;20026;-70
2023/12/12 03:41:19;;;;;;;34.50;8.98;;;9.00;97.70;;;;;;4999676;28;20065;-69
2023/12/12 03:43:45;;;;;;;28.92;9.32;;;9.00;97.70;;;;;;4990774;28;20037;-69
2023/12/12 03:46:15;;;;;;;36.60;10.05;;;9.00;97.80;;;;;;5001120;28;20037;-69
2023/12/12 03:48:40;;;;;;;31.35;8.48;;;9.00;97.80;;;;;;4999912;28;20022;-70
2023/12/12 03:51:12;;;;;;;30.30;9.50;;;9.10;97.80;;;;;;4993244;28;20046;-70
2023/12/12 03:53:41;;;;;;;31.73;9.10;;;9.10;97.90;;;;;;5002989;28;20378;-70
2023/12/12 03:56:07;;;;;;;32.65;9.32;;;9.10;98.00;;;;;;4985857;28;20448;-69
2023/12/12 03:58:33;;;;;;;30.10;9.55;;;9.10;98.00;;;;;;5001243;28;20022;-71
2023/12/12 04:00:58;;;;;;;31.58;10.27;;;9.10;98.10;;;;;;4998212;28;20128;-69
2023/12/12 04:03:24;;;;;;;30.27;9.98;;;9.20;98.20;;;;;;4993712;28;20589;-68
2023/12/12 04:05:50;;;;;;;33.17;10.40;;;9.20;98.20;;;;;;4998378;28;20045;-70
2023/12/12 04:08:16;;;;;;;36.72;12.15;;;9.20;98.20;;;;;;4991656;28;20035;-71
2023/12/12 04:10:41;;;;;;;45.22;11.77;;;9.30;98.20;;;;;;4975418;28;20501;-69
2023/12/12 04:13:07;;;;;;;36.05;12.43;;;9.20;98.30;;;;;;4997305;28;20418;-70
2023/12/12 04:15:33;;;;;;;44.80;12.45;;;9.30;98.30;;;;;;5001693;28;20450;-68
2023/12/12 04:17:58;;;;;;;42.20;11.95;;;9.30;98.30;;;;;;4991812;28;20042;-69
2023/12/12 04:20:24;;;;;;;44.05;11.95;;;9.30;98.40;;;;;;4994974;28;20074;-71
2023/12/12 04:22:49;;;;;;;42.47;13.07;;;9.40;98.30;;;;;;4999954;28;20054;-69
2023/12/12 04:25:15;;;;;;;42.35;11.70;;;9.40;98.30;;;;;;4995828;28;20481;-69
2023/12/12 04:27:41;;;;;;;40.03;11.48;;;9.40;98.20;;;;;;4997610;28;20030;-71
2023/12/12 04:30:07;;;;;;;39.53;11.77;;;9.40;98.30;;;;;;5000628;28;20046;-70
2023/12/12 04:32:33;;;;;;;35.90;12.43;;;9.40;98.30;;;;;;4994920;28;20026;-69
2023/12/12 04:35:05;;;;;;;33.75;11.75;;;9.40;98.30;;;;;;4999140;28;20029;-68
2023/12/12 04:37:31;;;;;;;35.10;12.68;;;9.50;98.30;;;;;;4996638;28;20029;-73
2023/12/12 04:39:56;;;;;;;36.67;12.18;;;9.40;98.30;;;;;;5000173;28;20390;-71
2023/12/12 04:42:23;;;;;;;33.38;13.02;;;9.40;98.30;;;;;;5004778;28;20125;-68
2023/12/12 04:44:49;;;;;;;38.53;13.77;;;9.40;98.30;;;;;;5000136;28;20125;-69
2023/12/12 04:47:15;;;;;;;35.55;14.05;;;9.40;98.40;;;;;;5003428;28;20030;-71
2023/12/12 04:49:40;;;;;;;41.47;13.85;;;9.40;98.30;;;;;;4997624;28;20600;-70
2023/12/12 04:52:06;;;;;;;36.92;14.18;;;9.40;98.40;;;;;;5002958;28;20038;-69
2023/12/12 04:54:32;;;;;;;43.40;15.40;;;9.50;98.30;;;;;;4991511;28;20075;-70
2023/12/12 04:56:58;;;;;;;42.13;16.25;;;9.50;98.30;;;;;;4994981;28;20022;-70
2023/12/12 04:59:24;;;;;;;42.85;16.63;;;9.50;98.30;;;;;;4995821;28;20389;-70
2023/12/12 05:01:49;;;;;;;42.65;15.30;;;9.50;98.40;;;;;;4998189;28;20271;-69
2023/12/12 05:04:15;;;;;;;42.30;17.20;;;9.50;98.40;;;;;;5002885;28;20144;-70
2023/12/12 05:06:41;;;;;;;38.45;15.85;;;9.50;98.40;;;;;;5005301;28;20042;-70
2023/12/12 05:09:07;;;;;;;43.15;15.70;;;9.50;98.40;;;;;;5004759;28;20034;-70
2023/12/12 05:11:33;;;;;;;42.40;18.00;;;9.50;98.40;;;;;;4996517;28;20116;-69
2023/12/12 05:13:59;;;;;;;41.47;19.88;;;9.50;98.40;;;;;;4996049;28;20374;-70
2023/12/12 05:16:24;;;;;;;48.15;20.98;;;9.50;98.40;;;;;;4995294;28;20041;-69
2023/12/12 05:18:50;;;;;;;47.83;23.08;;;9.50;98.50;;;;;;5003491;28;20025;-70
2023/12/12 05:21:20;;;;;;;43.78;21.50;;;9.50;98.50;;;;;;5001597;28;20397;-69
2023/12/12 05:23:46;;;;;;;50.65;23.40;;;9.60;98.60;;;;;;4995696;28;20464;-69
2023/12/12 05:26:12;;;;;;;50.75;23.35;;;9.60;98.60;;;;;;5002611;28;20026;-70
2023/12/12 05:28:37;;;;;;;52.80;23.73;;;9.60;98.70;;;;;;5001900;28;20441;-69
2023/12/12 05:31:03;;;;;;;53.45;26.77;;;9.60;98.80;;;;;;4986025;28;20041;-70
2023/12/12 05:33:29;;;;;;;57.45;26.10;;;9.60;98.80;;;;;;4994331;28;20424;-71
2023/12/12 05:35:54;;;;;;;60.83;27.52;;;9.60;98.80;;;;;;4993935;28;20056;-71
2023/12/12 05:38:20;;;;;;;54.15;26.27;;;9.60;98.90;;;;;;5003699;28;20072;-72
2023/12/12 05:40:45;;;;;;;57.97;26.58;;;9.60;98.90;;;;;;4998544;28;20104;-69
2023/12/12 05:43:11;;;;;;;56.10;26.25;;;9.70;98.90;;;;;;5002068;28;20576;-69
2023/12/12 05:45:37;;;;;;;54.70;26.48;;;9.70;98.80;;;;;;5000285;28;20045;-71
2023/12/12 05:48:03;;;;;;;54.95;26.27;;;9.70;98.80;;;;;;5001661;28;20026;-70
2023/12/12 05:50:29;;;;;;;56.45;26.27;;;9.70;98.80;;;;;;5002962;28;20042;-70
2023/12/12 05:52:55;;;;;;;52.00;26.00;;;9.70;98.80;;;;;;5003768;28;20026;-71
2023/12/12 05:55:21;;;;;;;59.70;26.40;;;9.70;98.80;;;;;;5000000;28;20286;-69
2023/12/12 05:57:48;;;;;;;54.53;26.50;;;9.70;98.80;;;;;;5002190;28;20029;-70
2023/12/12 06:00:14;;;;;;;52.78;25.95;;;9.70;98.90;;;;;;5000203;28;20474;-70
2023/12/12 06:02:40;;;;;;;51.80;24.65;;;9.70;98.90;;;;;;4982087;28;20378;-71
2023/12/12 06:05:07;;;;;;;52.92;25.00;;;9.70;98.90;;;;;;4984184;28;20034;-71
2023/12/12 06:07:33;;;;;;;48.63;25.48;;;9.70;98.90;;;;;;4999156;28;20489;-70
2023/12/12 06:09:59;;;;;;;50.70;23.85;;;9.70;98.90;;;;;;4993252;28;20046;-70
2023/12/12 06:12:25;;;;;;;49.72;24.13;;;9.70;99.00;;;;;;5000144;28;20049;-70
2023/12/12 06:14:50;;;;;;;53.97;24.60;;;9.80;99.00;;;;;;4982907;28;20065;-69
2023/12/12 06:17:16;;;;;;;53.22;24.67;;;9.70;99.00;;;;;;5001739;28;20026;-71
2023/12/12 06:19:42;;;;;;;51.00;24.27;;;9.80;99.10;;;;;;4998962;28;20032;-70
2023/12/12 06:22:08;;;;;;;50.65;22.13;;;9.80;99.00;;;;;;4996714;28;20038;-69
2023/12/12 06:24:34;;;;;;;51.72;24.10;;;9.80;99.00;;;;;;4999147;28;20109;-70
2023/12/12 06:26:59;;;;;;;51.97;25.77;;;9.80;99.00;;;;;;5000042;28;20430;-71
2023/12/12 06:29:25;;;;;;;57.83;28.17;;;9.80;99.00;;;;;;4997695;28;20032;-70
2023/12/12 06:31:51;;;;;;;53.58;25.63;;;9.80;99.00;;;;;;4995008;28;20389;-71
2023/12/12 06:34:16;;;;;;;52.97;26.27;;;9.80;99.10;;;;;;5002709;28;20385;-70
2023/12/12 06:36:42;;;;;;;54.53;26.63;;;9.80;99.10;;;;;;4982039;28;20161;-71
2023/12/12 06:39:09;;;;;;;56.97;27.40;;;9.80;99.00;;;;;;4999489;28;20014;-70
2023/12/12 06:41:36;;;;;;;55.65;27.77;;;9.80;99.10;;;;;;4999159;28;20505;-71
2023/12/12 06:44:02;;;;;;;48.53;25.60;;;9.80;99.10;;;;;;5000117;28;20050;-71
2023/12/12 06:46:28;;;;;;;62.97;28.23;;;9.80;99.20;;;;;;5001489;28;20037;-70
2023/12/12 06:48:54;;;;;;;59.17;27.65;;;9.80;99.20;;;;;;5002174;28;20018;-71
2023/12/12 06:51:20;;;;;;;54.22;28.27;;;9.80;99.30;;;;;;4998830;28;20052;-70
2023/12/12 06:53:45;;;;;;;54.50;25.85;;;9.80;99.30;;;;;;4995684;28;20032;-70
2023/12/12 06:56:11;;;;;;;53.45;28.05;;;9.80;99.40;;;;;;4998256;28;20162;-70
2023/12/12 06:58:37;;;;;;;54.45;27.15;;;9.80;99.40;;;;;;4995677;28;20081;-72
2023/12/12 07:01:03;;;;;;;56.50;26.60;;;9.90;99.50;;;;;;4994018;28;20128;-70
2023/12/12 07:03:29;;;;;;;71.90;29.95;;;9.80;99.50;;;;;;5000033;28;20029;-71
2023/12/12 07:05:54;;;;;;;56.78;27.88;;;9.90;99.50;;;;;;4998163;28;20033;-72
2023/12/12 07:08:20;;;;;;;60.85;29.25;;;9.90;99.50;;;;;;4991984;28;20320;-71
2023/12/12 07:10:47;;;;;;;60.40;28.15;;;9.80;99.60;;;;;;4995735;28;20045;-72
2023/12/12 07:13:13;;;;;;;56.42;30.42;;;9.80;99.60;;;;;;4990419;28;20026;-70
2023/12/12 07:15:39;;;;;;;61.80;29.33;;;9.90;99.60;;;;;;4994713;28;20041;-70
2023/12/12 07:18:10;;;;;;;62.88;31.70;;;9.90;99.60;;;;;;4996708;28;20024;-72
2023/12/12 07:20:39;;;;;;;65.97;29.17;;;9.90;99.70;;;;;;4996303;28;20125;-69
2023/12/12 07:23:05;;;;;;;54.22;28.15;;;9.80;99.70;;;;;;4996819;28;20907;-70
2023/12/12 07:25:31;;;;;;;62.72;30.95;;;9.90;99.70;;;;;;4994058;28;20029;-69
2023/12/12 07:27:56;;;;;;;61.80;30.40;;;9.90;99.70;;;;;;4998387;28;20022;-69
2023/12/12 07:30:22;;;;;;;62.83;29.45;;;9.90;99.70;;;;;;4995370;28;20165;-72
2023/12/12 07:32:48;;;;;;;58.38;29.67;;;9.90;99.70;;;;;;5000991;28;20375;-70
2023/12/12 07:35:13;;;;;;;59.05;30.15;;;9.90;99.80;;;;;;4996371;28;20038;-69
2023/12/12 07:37:39;;;;;;;61.22;31.20;;;9.90;99.80;;;;;;4999925;28;20018;-70
2023/12/12 07:40:06;;;;;;;52.75;28.85;;;10.00;99.90;;;;;;4999159;28;20029;-70
2023/12/12 07:42:31;;;;;;;63.17;29.50;;;10.00;99.90;;;;;;4985968;28;20427;-69
2023/12/12 07:44:57;;;;;;;54.08;27.80;;;10.00;99.90;;;;;;4996677;28;20133;-70
2023/12/12 07:47:23;;;;;;;62.85;29.67;;;10.00;99.90;;;;;;5001229;28;20030;-69
2023/12/12 07:49:49;;;;;;;63.83;30.48;;;10.00;99.90;;;;;;4992319;28;20026;-70
2023/12/12 07:52:15;;;;;;;65.38;30.70;;;10.00;99.90;;;;;;4996193;28;20037;-70
2023/12/12 07:54:43;;;;;;;64.93;29.33;;;10.00;99.90;;;;;;4992531;28;20548;-69
2023/12/12 07:57:09;;;;;;;58.72;28.65;;;10.00;99.90;;;;;;4993253;28;20442;-70
2023/12/12 07:59:35;;;;;;;57.40;28.15;;;10.00;99.90;;;;;;4996414;28;20522;-72
2023/12/12 08:02:01;;;;;;;51.97;27.10;;;10.10;99.90;;;;;;4980707;28;20109;-69
2023/12/12 08:04:27;;;;;;;52.13;27.25;;;10.10;99.90;;;;;;4999879;28;20382;-70
2023/12/12 08:06:54;;;;;;;50.40;26.58;;;10.10;99.90;;;;;;4991555;28;20066;-70
2023/12/12 08:09:20;;;;;;;54.03;27.30;;;10.10;99.90;;;;;;4995525;28;20550;-69
2023/12/12 08:11:46;;;;;;;48.25;25.45;;;10.10;99.90;;;;;;4993047;28;20044;-68
2023/12/12 08:14:12;;;;;;;50.45;26.02;;;10.10;99.90;;;;;;5004819;28;20022;-68
2023/12/12 08:16:38;;;;;;;50.55;25.83;;;10.10;99.90;;;;;;4994438;28;20042;-68
2023/12/12 08:19:03;;;;;;;48.80;25.20;;;10.10;99.90;;;;;;5002395;28;20022;-68
2023/12/12 08:21:29;;;;;;;47.92;26.35;;;10.10;99.90;;;;;;4999151;28;20585;-69
2023/12/12 08:23:55;;;;;;;43.35;24.75;;;10.10;99.90;;;;;;5002875;28;20018;-68
2023/12/12 08:26:24;;;;;;;41.85;22.88;;;10.10;99.90;;;;;;5001420;28;20026;-68
2023/12/12 08:28:50;;;;;;;46.28;25.13;;;10.10;99.90;;;;;;4989181;28;20323;-67
2023/12/12 08:31:16;;;;;;;44.63;22.75;;;10.10;99.90;;;;;;5000240;28;20489;-68
2023/12/12 08:33:44;;;;;;;37.60;21.83;;;10.20;99.90;;;;;;4996926;28;20026;-68
2023/12/12 08:36:10;;;;;;;39.15;20.77;;;10.20;99.90;;;;;;4997350;28;20025;-68
2023/12/12 08:38:37;;;;;;;45.33;22.83;;;10.20;99.90;;;;;;4999659;28;20033;-68
2023/12/12 08:41:03;;;;;;;41.13;22.15;;;10.20;99.90;;;;;;4997690;28;20049;-69
2023/12/12 08:43:28;;;;;;;42.50;23.67;;;10.10;99.90;;;;;;4999623;28;20099;-68
2023/12/12 08:45:55;;;;;;;40.63;23.02;;;10.20;99.90;;;;;;5003427;28;20073;-68
2023/12/12 08:48:23;;;;;;;41.22;22.48;;;10.20;99.90;;;;;;5000902;28;20021;-70
2023/12/12 08:50:50;;;;;;;42.55;23.92;;;10.30;99.90;;;;;;4983254;28;20165;-67
2023/12/12 08:53:16;;;;;;;41.65;23.83;;;10.20;99.90;;;;;;4987604;28;20422;-69
2023/12/12 08:55:42;;;;;;;39.80;22.75;;;10.30;99.90;;;;;;5002123;28;20038;-67
2023/12/12 08:58:08;;;;;;;38.72;23.27;;;10.30;99.90;;;;;;4983981;28;20006;-68
2023/12/12 09:00:34;;;;;;;42.95;24.30;;;10.30;99.90;;;;;;4981190;28;20753;-69
2023/12/12 09:03:00;;;;;;;40.15;22.15;;;10.30;99.90;;;;;;5005371;28;20072;-67
2023/12/12 09:05:26;;;;;;;38.47;21.83;;;10.40;99.90;;;;;;4987335;28;20423;-68
2023/12/12 09:07:52;;;;;;;34.90;19.52;;;10.40;99.90;;;;;;4985918;28;20440;-71
2023/12/12 09:10:17;;;;;;;38.47;23.85;;;10.40;99.90;;;;;;4985441;28;20142;-69
2023/12/12 09:12:43;;;;;;;34.80;20.25;;;10.40;99.90;;;;;;4979863;28;20465;-71
2023/12/12 09:15:09;;;;;;;34.38;21.13;;;10.50;99.90;;;;;;4995268;28;20072;-68
2023/12/12 09:17:35;;;;;;;34.15;20.38;;;10.50;99.90;;;;;;4982175;28;20117;-68
2023/12/12 09:20:02;;;;;;;37.03;20.50;;;10.50;99.90;;;;;;4998474;28;20037;-68
2023/12/12 09:22:27;;;;;;;34.75;19.02;;;10.50;99.90;;;;;;4995315;28;20069;-68
2023/12/12 09:24:54;;;;;;;32.30;18.38;;;10.50;99.90;;;;;;5001395;28;20033;-68
2023/12/12 09:27:20;;;;;;;28.98;17.70;;;10.50;99.90;;;;;;5000588;28;20057;-70
2023/12/12 09:29:46;;;;;;;33.53;19.83;;;10.60;99.90;;;;;;4998853;28;20048;-69
2023/12/12 09:32:12;;;;;;;34.30;19.58;;;10.70;99.90;;;;;;4999830;28;20032;-67
2023/12/12 09:34:38;;;;;;;31.92;18.92;;;10.70;99.90;;;;;;4980650;28;20037;-68
2023/12/12 09:37:04;;;;;;;31.85;19.40;;;10.80;99.90;;;;;;4993615;28;20045;-69
2023/12/12 09:39:30;;;;;;;36.22;20.67;;;10.80;99.90;;;;;;4998059;28;20072;-68
2023/12/12 09:41:59;;;;;;;37.70;22.67;;;10.90;99.90;;;;;;4985811;28;20014;-68
2023/12/12 09:44:28;;;;;;;36.75;21.33;;;10.80;99.90;;;;;;5001972;28;20017;-69
2023/12/12 09:46:54;;;;;;;36.80;22.92;;;10.80;99.90;;;;;;4977253;28;20041;-68
2023/12/12 09:49:20;;;;;;;37.40;22.20;;;10.80;99.90;;;;;;4998961;28;20034;-69
2023/12/12 09:51:50;;;;;;;34.65;22.23;;;10.80;99.90;;;;;;4995716;28;20145;-68
2023/12/12 09:54:17;;;;;;;33.67;20.88;;;10.90;99.90;;;;;;5003293;28;20017;-70
2023/12/12 09:56:46;;;;;;;29.83;19.52;;;10.90;99.90;;;;;;4984631;28;20129;-70
2023/12/12 09:59:12;;;;;;;33.40;21.13;;;10.90;99.90;;;;;;4997393;28;20044;-68
2023/12/12 10:01:41;;;;;;;35.08;23.77;;;11.00;99.90;;;;;;5001200;28;20478;-68
2023/12/12 10:04:08;;;;;;;35.20;21.08;;;11.10;99.90;;;;;;5002973;28;20105;-70
2023/12/12 10:06:48;;;;;;;36.42;22.15;;;11.10;99.90;;;;;;5001842;28;20029;-69
2023/12/12 10:09:13;;;;;;;35.00;23.05;;;11.20;99.90;;;;;;4998788;28;20342;-68
2023/12/12 10:11:39;;;;;;;36.42;23.02;;;11.30;99.90;;;;;;4997964;28;20038;-68
2023/12/12 10:14:05;;;;;;;32.40;21.65;;;11.30;99.80;;;;;;5001976;28;20085;-70
2023/12/12 10:16:30;;;;;;;34.72;22.77;;;11.20;99.70;;;;;;5002184;28;20079;-68
2023/12/12 10:19:01;;;;;;;31.08;20.55;;;11.10;99.70;;;;;;5001899;28;20422;-69
2023/12/12 10:21:27;;;;;;;32.42;21.00;;;11.10;99.70;;;;;;4998959;28;20136;-70
2023/12/12 10:23:53;;;;;;;28.35;19.17;;;11.10;99.80;;;;;;5001073;28;20123;-68
2023/12/12 10:26:29;;;;;;;31.80;20.63;;;11.10;99.80;;;;;;4993649;28;21092;-68
2023/12/12 10:28:56;;;;;;;28.35;18.70;;;11.10;99.90;;;;;;5000395;28;20474;-68
2023/12/12 10:31:25;;;;;;;28.35;18.77;;;11.20;99.90;;;;;;4984063;28;20046;-68
2023/12/12 10:33:52;;;;;;;31.58;19.63;;;11.30;99.90;;;;;;4985067;28;20386;-69
2023/12/12 10:36:17;;;;;;;27.02;18.23;;;11.30;99.90;;;;;;4977537;28;20426;-69
2023/12/12 10:38:44;;;;;;;26.35;18.45;;;11.30;99.80;;;;;;5001878;28;20588;-70
2023/12/12 10:41:14;;;;;;;26.70;18.10;;;11.20;99.80;;;;;;4997326;28;20513;-68
2023/12/12 10:43:42;;;;;;;36.15;21.15;;;11.20;99.70;;;;;;4994685;28;20034;-68
2023/12/12 10:46:16;;;;;;;39.33;26.48;;;11.20;99.80;;;;;;4989016;28;20040;-69
2023/12/12 10:48:52;;;;;;;54.53;37.67;;;11.20;99.80;;;;;;4998720;28;20029;-68
2023/12/12 10:51:18;;;;;;;44.72;30.10;;;11.30;99.80;;;;;;4993956;28;20350;-68
2023/12/12 10:53:47;;;;;;;59.50;38.75;;;11.30;99.80;;;;;;5000267;28;20106;-68
2023/12/12 10:56:13;;;;;;;38.97;27.90;;;11.30;99.80;;;;;;4997973;28;20045;-68
2023/12/12 10:58:41;;;;;;;33.75;22.75;;;11.30;99.90;;;;;;4981865;28;20033;-68
2023/12/12 11:01:13;;;;;;;37.15;26.38;;;11.30;99.80;;;;;;4998193;28;20572;-68
2023/12/12 11:03:40;;;;;;;31.63;21.08;;;11.30;99.80;;;;;;5000861;28;20122;-68
2023/12/12 11:06:07;;;;;;;27.20;18.63;;;11.40;99.80;;;;;;4998170;28;20421;-67
2023/12/12 11:08:33;;;;;;;26.40;18.65;;;11.40;99.80;;;;;;4999089;28;20029;-67
2023/12/12 11:11:02;;;;;;;26.27;18.05;;;11.50;99.80;;;;;;4992940;28;20046;-69
2023/12/12 11:13:32;;;;;;;27.17;19.27;;;11.40;99.70;;;;;;4983948;28;20088;-69
2023/12/12 11:16:01;;;;;;;30.35;20.27;;;11.50;99.70;;;;;;4995908;28;20108;-68
2023/12/12 11:18:27;;;;;;;32.40;19.65;;;11.50;99.70;;;;;;4998954;28;20029;-69
2023/12/12 11:20:53;;;;;;;26.88;18.45;;;11.50;99.70;;;;;;4992661;28;20038;-69
2023/12/12 11:23:55;;;;;;;25.05;16.75;;;11.50;99.70;;;;;;4999006;28;20133;-69
2023/12/12 11:26:25;;;;;;;27.88;18.42;;;11.50;99.70;;;;;;4990343;28;20038;-69
2023/12/12 11:28:52;;;;;;;26.80;17.52;;;11.60;99.70;;;;;;4991827;28;20018;-68
2023/12/12 11:31:26;;;;;;;24.67;17.85;;;11.70;99.70;;;;;;4998873;28;20103;-68
2023/12/12 11:34:03;;;;;;;24.20;16.42;;;11.70;99.60;;;;;;4998479;28;20607;-68
2023/12/12 11:36:48;;;;;;;26.52;16.98;;;11.70;99.50;;;;;;4998051;28;20042;-69
2023/12/12 11:39:17;;;;;;;;;;;11.80;99.40;;;;;;4998740;28;20061;-69
2023/12/12 11:41:45;;;;;;;23.05;15.35;;;11.80;99.40;;;;;;4991493;28;19914;-67
2023/12/12 11:44:11;;;;;;;22.80;16.02;;;11.90;99.50;;;;;;4978451;28;20561;-67
2023/12/12 11:46:37;;;;;;;22.60;16.27;;;12.00;99.50;;;;;;4996604;28;20045;-69
2023/12/12 11:49:20;;;;;;;23.50;16.05;;;12.00;99.40;;;;;;5000207;28;20041;-67
2023/12/12 11:51:47;;;;;;;22.73;16.45;;;12.10;99.30;;;;;;4995459;28;20042;-68
2023/12/12 11:54:23;;;;;;;24.98;16.88;;;12.20;99.30;;;;;;4999849;28;20080;-67
2023/12/12 11:56:59;;;;;;;21.58;15.48;;;12.40;99.30;;;;;;5000589;28;20355;-69
2023/12/12 11:59:27;;;;;;;20.40;16.10;;;12.50;99.00;;;;;;5001110;28;20451;-68
2023/12/12 12:01:53;;;;;;;20.40;14.20;;;12.60;98.90;;;;;;5003383;28;20136;-68
2023/12/12 12:04:20;;;;;;;21.13;15.02;;;12.70;98.70;;;;;;5001290;28;20042;-67
2023/12/12 12:06:46;;;;;;;20.33;14.70;;;12.70;98.30;;;;;;4978436;28;20467;-68
2023/12/12 12:09:13;;;;;;;18.90;13.65;;;12.80;98.10;;;;;;5004571;28;20022;-68
2023/12/12 12:11:40;;;;;;;17.27;13.43;;;12.90;98.00;;;;;;4999418;28;20797;-68
2023/12/12 12:14:06;;;;;;;19.02;12.63;;;12.80;97.70;;;;;;4986511;28;20034;-68
2023/12/12 12:16:32;;;;;;;16.65;12.70;;;12.80;97.60;;;;;;5001738;28;20044;-70
2023/12/12 12:19:18;;;;;;;18.33;13.63;;;12.80;97.50;;;;;;5000858;28;20049;-70
2023/12/12 12:21:43;;;;;;;16.88;12.15;;;12.70;97.40;;;;;;4994304;28;20856;-68
2023/12/12 12:24:09;;;;;;;16.80;11.93;;;12.70;97.50;;;;;;4998164;28;20037;-68
2023/12/12 12:26:35;;;;;;;17.20;12.38;;;12.70;97.60;;;;;;4999335;28;20038;-69
2023/12/12 12:29:08;;;;;;;18.40;12.20;;;12.80;97.80;;;;;;5006021;28;20030;-68
2023/12/12 12:31:34;;;;;;;17.38;12.10;;;12.80;97.60;;;;;;5000558;28;20100;-71
2023/12/12 12:33:59;;;;;;;14.77;10.88;;;13.00;97.60;;;;;;4982226;28;20458;-68